OICI  Ilam Airport

Add Bookmark

Ilam, Iran

Status IATA
Operational IIL
Latitude Longitude
33° 35' 11" N 46° 24' 17" E
33.586601 46.404800
Local (DST + 5) UTC (GMT + 4)
Sep 2, 2014 01:27 Sep 1, 2014 20:57
Sunrise-Sunset Local UTC
Begin Civil Twilight 06:32 02:02
Sunrise 06:57 02:27
Sunset 07:50 15:20
End Civil Twilight 08:15 15:45

Current Weather

METAR Observed VFR
OICI 012000Z 00000KT CAVOK 24/03 Q1012 A2991 Mon, Sep 1, 2014 @ 20:00 UTC
(57 Minutes ago)
Visual Flight Rules
Wind Visibility Clouds Conditions
Calm 10 km or more
  • Clear skies
  • No significant weather
Temperatures Readings Precipitation
Current Temp 24°C (75°F)
Dewpoint 3°C (37°F)
Humidity 25%
Altimeter 29.88"Hg
Sea Level Pressure 1012mb
Field Elevation 4406.17'
None Recorded

Additional weather within a 185.2km radius of OICI

Map ICAO Location
OIGK 101.5km N (040°)
OICC 109.3km N (039°)
OICK 174.8km E (095°)

24 Hour Weather History

Loading
-

24 Hour Weather Graphs

Loading
-

CheckWX.com is intended as a tool to help pilots better visualize weather data. It is not intended as a substitute for an official weather briefing obtained from a Flight Service Station. CheckWX.com does not meet the FAA requirements for an official pre-flight weather briefing. Therefore, it's important that pilots still call and obtain an official FSS pre-flight weather briefing.